createdAt,value
2023-03-18T00:04:39.033Z,5.63
2023-03-18T00:09:43.287Z,6.10
2023-03-18T00:14:46.436Z,5.67
2023-03-18T00:19:50.243Z,5.80
2023-03-18T00:24:54.819Z,6.63
2023-03-18T00:29:58.661Z,5.80
2023-03-18T00:35:02.289Z,5.80
2023-03-18T00:40:10.592Z,5.57
2023-03-18T00:45:13.543Z,5.30
2023-03-18T00:50:18.020Z,5.13
2023-03-18T00:55:22.862Z,5.60
2023-03-18T01:00:27.114Z,5.80
2023-03-18T01:05:30.447Z,5.60
2023-03-18T01:10:34.811Z,4.83
2023-03-18T01:15:38.726Z,5.10
2023-03-18T01:20:41.630Z,5.30
2023-03-18T01:25:45.988Z,5.57
2023-03-18T01:30:55.301Z,6.00
2023-03-18T01:36:00.312Z,6.17
2023-03-18T01:41:07.471Z,5.67
2023-03-18T01:46:41.314Z,6.20
2023-03-18T01:51:49.257Z,5.60
2023-03-18T01:56:55.809Z,6.97
2023-03-18T02:02:04.583Z,5.60
2023-03-18T02:07:16.617Z,5.50
2023-03-18T02:12:24.922Z,6.10
2023-03-18T02:17:35.417Z,6.60
2023-03-18T02:22:43.676Z,6.57
2023-03-18T02:27:52.197Z,5.60
2023-03-18T02:32:58.958Z,6.37
2023-03-18T02:38:01.977Z,6.00
2023-03-18T02:43:20.173Z,5.97
2023-03-18T02:48:33.739Z,5.53
2023-03-18T02:53:37.203Z,6.33
2023-03-18T02:58:41.943Z,6.00
2023-03-18T03:03:45.767Z,5.93
2023-03-18T03:08:49.766Z,5.20
2023-03-18T03:13:54.586Z,5.40
2023-03-18T03:18:57.544Z,5.40
2023-03-18T03:24:00.746Z,6.23
2023-03-18T03:29:07.029Z,5.73
2023-03-18T03:34:10.762Z,5.60
2023-03-18T03:39:13.650Z,5.30
2023-03-18T03:44:17.916Z,5.90
2023-03-18T03:49:25.218Z,5.23
2023-03-18T03:54:28.369Z,5.87
2023-03-18T03:59:32.742Z,5.47
2023-03-18T04:04:49.310Z,4.90
2023-03-18T04:10:03.063Z,5.47
2023-03-18T04:15:10.991Z,4.70
2023-03-18T04:20:14.830Z,4.90
2023-03-18T04:25:18.084Z,5.70
2023-03-18T04:30:25.590Z,4.90
2023-03-18T04:35:38.664Z,6.80
2023-03-18T04:40:42.825Z,5.67
2023-03-18T04:45:47.338Z,5.60
2023-03-18T04:50:51.580Z,5.33
2023-03-18T04:56:00.346Z,5.70
2023-03-18T05:01:13.192Z,5.50
2023-03-18T05:06:22.974Z,6.07
2023-03-18T05:11:40.447Z,5.43
2023-03-18T05:16:51.940Z,5.70
2023-03-18T05:21:55.766Z,5.43
2023-03-18T05:26:59.153Z,5.63
2023-03-18T05:32:11.507Z,6.00
2023-03-18T05:37:16.008Z,6.10
2023-03-18T05:42:25.232Z,6.73
2023-03-18T05:47:29.780Z,6.03
2023-03-18T05:52:39.084Z,6.10
2023-03-18T05:57:48.730Z,6.90
2023-03-18T06:02:53.982Z,6.10
2023-03-18T06:07:57.949Z,5.73
2023-03-18T06:13:01.222Z,6.77
2023-03-18T06:18:06.087Z,6.40
2023-03-18T06:23:09.136Z,5.47
2023-03-18T06:28:13.005Z,6.30
2023-03-18T06:33:18.320Z,6.50
2023-03-18T06:38:22.427Z,6.53
2023-03-18T06:43:27.081Z,6.37
2023-03-18T06:48:32.966Z,10.27
2023-03-18T06:53:38.689Z,5.97
2023-03-18T06:58:41.897Z,6.47
2023-03-18T07:03:46.908Z,6.03
2023-03-18T07:08:50.950Z,6.07
2023-03-18T07:13:54.156Z,5.97
2023-03-18T07:19:05.676Z,6.00
2023-03-18T07:24:09.004Z,6.10
2023-03-18T07:29:11.939Z,6.50
2023-03-18T07:34:17.811Z,6.07
2023-03-18T07:39:21.037Z,6.43
2023-03-18T07:44:25.195Z,6.27
2023-03-18T07:49:30.101Z,5.60
2023-03-18T07:54:33.100Z,6.10
2023-03-18T07:59:36.579Z,6.30
2023-03-18T08:04:40.928Z,5.67
2023-03-18T08:09:43.843Z,6.00
2023-03-18T08:14:48.254Z,6.33
2023-03-18T08:19:53.333Z,6.90
2023-03-18T08:24:58.119Z,6.37
2023-03-18T08:30:03.488Z,6.50
2023-03-18T08:35:09.841Z,6.10
2023-03-18T08:40:13.981Z,5.80
2023-03-18T08:45:17.197Z,5.83
2023-03-18T08:50:22.899Z,6.67
2023-03-18T08:55:30.922Z,5.40
2023-03-18T09:00:34.950Z,6.10
2023-03-18T09:05:40.325Z,6.37
2023-03-18T09:10:45.674Z,6.10
2023-03-18T09:15:48.657Z,6.40
2023-03-18T09:20:53.654Z,5.70
2023-03-18T09:25:57.223Z,6.30
2023-03-18T09:31:00.288Z,6.00
2023-03-18T09:36:05.297Z,6.40
2023-03-18T09:41:22.196Z,6.20
2023-03-18T09:46:34.091Z,5.70
2023-03-18T09:51:54.315Z,6.20
2023-03-18T09:56:57.422Z,5.33
2023-03-18T10:02:01.790Z,5.80
2023-03-18T10:07:13.143Z,5.80
2023-03-18T10:12:22.042Z,6.63
2023-03-18T10:17:30.273Z,6.90
2023-03-18T10:22:55.703Z,6.50
2023-03-18T10:28:14.071Z,6.77
2023-03-18T10:33:27.644Z,6.33
2023-03-18T10:38:37.109Z,6.30
2023-03-18T10:43:40.986Z,6.77
2023-03-18T10:48:47.117Z,6.00
2023-03-18T10:53:58.764Z,6.63
2023-03-18T10:59:02.069Z,6.57
2023-03-18T11:04:07.893Z,7.20
2023-03-18T11:09:14.321Z,6.77
2023-03-18T11:14:20.997Z,6.80
2023-03-18T11:19:29.798Z,7.00
2023-03-18T11:24:39.588Z,7.50
2023-03-18T11:29:46.807Z,7.07
2023-03-18T11:34:57.265Z,6.37
2023-03-18T11:40:18.506Z,6.20
2023-03-18T11:45:36.970Z,6.57
2023-03-18T11:50:47.310Z,6.83
2023-03-18T11:55:59.489Z,5.90
2023-03-18T12:01:12.179Z,6.73
2023-03-18T12:06:21.236Z,6.97
2023-03-18T12:11:42.265Z,7.00
2023-03-18T12:16:55.940Z,6.70
2023-03-18T12:22:11.842Z,7.93
2023-03-18T12:27:24.937Z,8.40
2023-03-18T12:32:34.952Z,8.07
2023-03-18T12:37:53.672Z,8.00
2023-03-18T12:43:11.227Z,8.10
2023-03-18T12:48:18.558Z,7.97
2023-03-18T12:53:29.814Z,8.63
2023-03-18T12:58:40.776Z,8.00
2023-03-18T13:03:46.202Z,8.53
2023-03-18T13:09:02.735Z,8.97
2023-03-18T13:14:15.253Z,9.47
2023-03-18T13:19:18.896Z,8.27
2023-03-18T13:24:53.955Z,8.40
2023-03-18T13:30:06.192Z,9.13
2023-03-18T13:35:37.537Z,8.87
2023-03-18T13:40:57.248Z,8.33
2023-03-18T13:46:02.404Z,9.47
2023-03-18T13:51:21.822Z,9.60
2023-03-18T13:56:33.195Z,9.10
2023-03-18T14:01:50.720Z,8.90
2023-03-18T14:06:57.191Z,8.00
2023-03-18T14:12:16.849Z,9.13
2023-03-18T14:17:26.877Z,9.00
2023-03-18T14:22:36.392Z,8.97
2023-03-18T14:27:47.250Z,9.27
2023-03-18T14:33:00.530Z,7.90
2023-03-18T14:38:10.725Z,8.90
2023-03-18T14:43:21.281Z,8.50
2023-03-18T14:48:30.537Z,8.60
2023-03-18T14:53:35.544Z,8.20
2023-03-18T14:58:38.444Z,8.43
2023-03-18T15:03:45.935Z,10.13
2023-03-18T15:08:51.398Z,10.20
2023-03-18T15:14:00.069Z,10.57
2023-03-18T15:19:05.238Z,9.50
2023-03-18T15:24:09.693Z,9.60
2023-03-18T15:29:33.491Z,8.90
2023-03-18T15:34:47.235Z,9.70
2023-03-18T15:39:55.673Z,9.80
2023-03-18T15:45:01.650Z,9.73
2023-03-18T15:50:27.214Z,10.00
2023-03-18T15:55:34.565Z,9.50
2023-03-18T16:00:37.805Z,9.50
2023-03-18T16:05:42.111Z,10.13
2023-03-18T16:10:46.771Z,10.63
2023-03-18T16:15:49.838Z,10.87
2023-03-18T16:20:54.273Z,11.70
2023-03-18T16:25:59.071Z,11.53
2023-03-18T16:31:01.998Z,12.17
2023-03-18T16:36:07.648Z,11.53
2023-03-18T16:41:10.577Z,11.27
2023-03-18T16:46:15.426Z,10.93
2023-03-18T16:51:19.774Z,10.33
2023-03-18T16:56:24.076Z,10.10
2023-03-18T17:01:28.078Z,10.70
2023-03-18T17:06:32.429Z,12.67
2023-03-18T17:11:35.386Z,13.23
2023-03-18T17:16:38.598Z,15.67
2023-03-18T17:21:42.886Z,14.17
2023-03-18T17:26:47.361Z,13.60
2023-03-18T17:31:50.404Z,18.57
2023-03-18T17:36:56.482Z,22.20
2023-03-18T17:41:59.375Z,20.40
2023-03-18T17:47:03.087Z,16.07
2023-03-18T17:52:07.551Z,19.87
2023-03-18T17:57:15.539Z,30.93
2023-03-18T18:02:20.310Z,20.83
2023-03-18T18:07:25.452Z,12.90
2023-03-18T18:12:28.701Z,15.67
2023-03-18T18:17:31.589Z,16.37
2023-03-18T18:22:36.000Z,26.20
2023-03-18T18:27:38.866Z,21.40
2023-03-18T18:32:41.841Z,21.40
2023-03-18T18:37:47.561Z,17.40
2023-03-18T18:42:50.533Z,32.47
2023-03-18T18:47:53.446Z,22.37
2023-03-18T18:52:57.765Z,24.13
2023-03-18T18:58:01.279Z,22.93
2023-03-18T19:03:04.239Z,41.73
2023-03-18T19:08:20.409Z,28.57
2023-03-18T19:13:24.581Z,21.03
2023-03-18T19:18:33.681Z,22.63
2023-03-18T19:23:37.982Z,24.70
2023-03-18T19:29:01.379Z,18.43
2023-03-18T19:34:16.194Z,53.67
2023-03-18T19:39:21.976Z,33.00
2023-03-18T19:44:26.456Z,21.83
2023-03-18T19:49:33.276Z,46.33
2023-03-18T19:54:38.053Z,17.13
2023-03-18T19:59:41.205Z,23.10
2023-03-18T20:04:44.173Z,28.50
2023-03-18T20:09:48.920Z,22.47
2023-03-18T20:14:52.500Z,27.27
2023-03-18T20:19:55.759Z,21.80
2023-03-18T20:25:00.765Z,26.20
2023-03-18T20:30:10.508Z,25.87
2023-03-18T20:35:13.838Z,18.80
2023-03-18T20:40:22.994Z,35.07
2023-03-18T20:45:26.165Z,37.23
2023-03-18T20:50:29.916Z,20.27
2023-03-18T20:55:36.028Z,21.20
2023-03-18T21:00:38.994Z,26.10
2023-03-18T21:05:41.886Z,16.00
2023-03-18T21:10:47.127Z,16.20
2023-03-18T21:15:50.187Z,22.27
2023-03-18T21:20:53.860Z,19.40
2023-03-18T21:25:58.219Z,27.87
2023-03-18T21:31:03.067Z,36.80
2023-03-18T21:36:07.443Z,20.40
2023-03-18T21:41:19.816Z,30.87
2023-03-18T21:46:24.615Z,22.73
2023-03-18T21:51:39.047Z,23.50
2023-03-18T21:56:44.336Z,17.60
2023-03-18T22:01:47.326Z,18.03
2023-03-18T22:06:50.268Z,20.23
2023-03-18T22:11:54.531Z,25.63
2023-03-18T22:16:57.457Z,24.13
2023-03-18T22:22:00.411Z,21.93
2023-03-18T22:27:04.919Z,22.50
2023-03-18T22:32:10.232Z,21.20
2023-03-18T22:37:19.963Z,15.90
2023-03-18T22:42:26.777Z,14.90
2023-03-18T22:47:29.684Z,16.17
2023-03-18T22:52:32.815Z,18.33
2023-03-18T22:57:37.092Z,17.93
2023-03-18T23:02:40.037Z,23.80
2023-03-18T23:07:43.044Z,30.00
2023-03-18T23:12:48.077Z,25.57
2023-03-18T23:17:50.988Z,35.60
2023-03-18T23:22:54.779Z,29.37
2023-03-18T23:27:59.013Z,27.00
2023-03-18T23:33:02.087Z,26.13
2023-03-18T23:38:05.780Z,25.93
2023-03-18T23:43:10.119Z,25.27
2023-03-18T23:48:13.023Z,22.77
2023-03-18T23:53:16.186Z,25.63
2023-03-18T23:58:20.585Z,28.10
